Hundvaag 1 weather for Jun 1988
Month no. 12
Obs.
Da.
Temp. Dew Point Precip. Wind
Speed
Wind gusts Cloud cover Press. Humidity Wind dir. Sunny OPT
01.06.1988 10,4   1,5                
02.06.1988 8,9   1,0             1  
03.06.1988 10,5   3,0                
04.06.1988 12,0   2,0             1  
05.06.1988 10,2   0,0             1  
06.06.1988 10,2   0,0             1  
07.06.1988 12,7   0,0             1  
08.06.1988 16,7   1,6             1  
09.06.1988 14,2   0,0             1  
10.06.1988 13,9   0,0             1  
11.06.1988 15,5   0,0             1  
12.06.1988 11,2   0,0             1  
13.06.1988 10,5   0,0             1  
14.06.1988 12,4   0,0             1  
15.06.1988 10,7   0,0             1  
16.06.1988 10,7   0,0             1  
17.06.1988 11,3   0,1             1  
18.06.1988 11,5   0,0             1  
19.06.1988 12,1   0,0             1  
20.06.1988 12,7   0,0             1  
21.06.1988 10,2   0,0             1  
22.06.1988 11,6   5,6             1  
23.06.1988 12,3   0,0             1  
24.06.1988 12,7   0,0             1  
25.06.1988 12,8   0,0             1  
26.06.1988 16,0   0,0             1  
27.06.1988 17,7   0,0             1  
28.06.1988 16,2   4,8             1  
29.06.1988 16,2   12,0                
30.06.1988 14,2   1,1             1  
                       
Avrg/Sum 12,6   32,7             27